Bremerton, WA (98337)

2:56 PM PST on February 10, 2016 (GMT -0800)
Bloomington Ave | | Change Station
CLOSE
Current Station
Personal Weather Station
Location: Bremerton, WA
Elevation: 75 ft
Nearby Weather Stations

Elev 75 ft 47.58 °N, 122.65 °W | Updated 14 minutes ago

Overcast
Overcast
52.2 °F
Feels Like 52.2 °F
N
0.0
Wind Variable Wind from SSW
Gusts 5.0 mph

Today
High -- | Low -- °F
--% Chance of Precip.
Yesterday
High -- | Low -- °F
Precip. -- in
Pressure 30.26 in
Visibility 3.0 miles
Clouds Overcast 2200 ft
Dew Point 50 °F
Humidity 92%
Rainfall 0.09 in
Snow Depth Not available.
7:24 AM 5:25 PM
Waxing Crescent, 7% visible
METAR KPWT 102255Z AUTO 00000KT 3SM OVC022 10/10 A3026 RMK AO1 P0001
Pressure 30.26 in
Visibility 3.0 miles
Clouds Overcast 2200 ft
Dew Point 50 °F
Humidity 92%
Rainfall 0.09 in
Snow Depth Not available.
7:24 AM 5:25 PM
Waxing Crescent, 7% visible
METAR KPWT 102255Z AUTO 00000KT 3SM OVC022 10/10 A3026 RMK AO1 P0001

10-Day Weather Forecast

Almanac

Astronomy

Feb. 10, 2016 Rise Set
Actual Time
Civil Twilight
Nautical Twilight
Astronomical Twilight
Moon
Length of Visible Light
Length of Day
Tomorrow will be .
, % of the Moon is Illuminated

Today's Extremes

State Highs State Lows

Community

WunderPhotos

Upload Photos

1,891,940 photos uploaded!

WunderBlog® & News

Nearby

Air Quality

  Air Quality AQ Index Pollutant
Not available.

Snow Depth

Station Depth Elevation

Earthquake Activity

City Distance Mag. Time & Date
Minimum magnitude displayed is 2.5.

Coastal Water Temperatures

Place Temperature

Stations

Nearby Weather Stations

Station Location Temp. Windchill Dew Point Humidity Wind Precip. Elev Updated Type
                   

Watches & Warnings

There are currently no watches in effect.